St Catherines, United Kingdom
Current Conditions -  °F | °C
As of 4:20 PM on Tuesday 21 Oct 2014 (Local Time) from EGPF Reporting Station
Light Rain Light Rain  
Wind Chill: 39°   Ceiling: 2100
Heat Index: 46°   Visibility: 6mi
Dew Point: 37°   Wind: 21mph
Humidity: 71%   Direction: 310°NW
Pressure: 29.74"   Gusts: 33mph
Location:  56.22°N, 5.03°W
Report Text: EGPF 211520Z AUTO 31018G29KT 9000 -RA FEW014/// BKN021/// BKN037/// //////TCU 08/03 Q1007
Loading
Personal Weather Stations






























Interactive Weather Map
Tropical Storm Tracking
New forecast layout! Learn more

10-Day Weather Forecast

Advertisements
Track Severe Weather on mobile